createdAt,value
2023-03-11T00:09:06.949Z,92
2023-03-11T00:19:08.948Z,92
2023-03-11T00:29:11.182Z,92
2023-03-11T00:49:15.201Z,92
2023-03-11T01:09:19.884Z,92
2023-03-11T02:09:33.560Z,91
2023-03-11T02:19:35.351Z,91
2023-03-11T02:39:39.824Z,91
2023-03-11T02:49:42.305Z,91
2023-03-11T02:50:04.225Z,91
2023-03-11T02:59:52.198Z,91
2023-03-11T03:09:54.739Z,91
2023-03-11T03:19:56.808Z,91
2023-03-11T03:40:01.431Z,90
2023-03-11T03:50:03.750Z,90
2023-03-11T04:00:06.075Z,90
2023-03-11T04:10:08.660Z,90
2023-03-11T04:20:10.916Z,90
2023-03-11T04:30:12.692Z,90
2023-03-11T04:40:15.071Z,90
2023-03-11T04:50:17.522Z,90
2023-03-11T05:10:22.678Z,90
2023-03-11T05:30:26.549Z,90
2023-03-11T05:40:28.438Z,90
2023-03-11T05:50:30.302Z,90
2023-03-11T06:00:32.120Z,90
2023-03-11T06:10:33.993Z,90
2023-03-11T06:20:36.591Z,90
2023-03-11T06:30:38.532Z,90
2023-03-11T06:40:40.411Z,90
2023-03-11T06:50:42.493Z,89
2023-03-11T07:00:44.500Z,89
2023-03-11T07:10:46.871Z,89
2023-03-11T07:20:49.253Z,88
2023-03-11T07:30:51.925Z,87
2023-03-11T07:40:54.421Z,86
2023-03-11T07:50:56.263Z,84
2023-03-11T08:00:58.731Z,83
2023-03-11T08:41:07.974Z,80
2023-03-11T08:51:10.061Z,79
2023-03-11T09:01:11.951Z,78
2023-03-11T09:11:14.567Z,77
2023-03-11T09:21:16.822Z,76
2023-03-11T09:31:19.239Z,75
2023-03-11T09:41:21.707Z,74
2023-03-11T09:51:23.779Z,71
2023-03-11T10:01:25.730Z,70
2023-03-11T10:11:28.272Z,70
2023-03-11T10:21:30.249Z,70
2023-03-11T10:31:32.894Z,68
2023-03-11T10:41:34.733Z,69
2023-03-11T10:51:36.922Z,65
2023-03-11T11:01:38.695Z,64
2023-03-11T11:11:40.369Z,63
2023-03-11T11:21:42.041Z,61
2023-03-11T11:31:44.490Z,60
2023-03-11T11:41:46.239Z,59
2023-03-11T11:51:48.425Z,58
2023-03-11T12:01:51.029Z,56
2023-03-11T12:11:52.744Z,57
2023-03-11T12:21:55.191Z,55
2023-03-11T12:31:56.898Z,54
2023-03-11T12:41:58.816Z,52
2023-03-11T12:52:01.018Z,53
2023-03-11T13:02:03.473Z,55
2023-03-11T13:12:05.228Z,53
2023-03-11T13:22:07.583Z,52
2023-03-11T13:32:10.829Z,51
2023-03-11T13:42:11.764Z,50
2023-03-11T14:02:16.494Z,48
2023-03-11T14:12:19.144Z,47
2023-03-11T14:22:20.781Z,45
2023-03-11T14:32:23.233Z,44
2023-03-11T14:42:24.887Z,44
2023-03-11T14:52:27.496Z,43
2023-03-11T15:02:29.294Z,44
2023-03-11T15:12:31.581Z,44
2023-03-11T15:22:34.082Z,44
2023-03-11T15:32:36.364Z,45
2023-03-11T15:42:38.307Z,45
2023-03-11T15:52:40.072Z,45
2023-03-11T16:02:42.165Z,45
2023-03-11T16:12:43.988Z,45
2023-03-11T16:22:46.303Z,46
2023-03-11T16:32:48.680Z,47
2023-03-11T16:42:50.656Z,48
2023-03-11T16:52:52.792Z,48
2023-03-11T17:02:55.485Z,48
2023-03-11T17:12:57.987Z,49
2023-03-11T17:22:59.833Z,50
2023-03-11T17:33:02.129Z,51
2023-03-11T17:43:04.621Z,52
2023-03-11T17:53:06.313Z,53
2023-03-11T18:03:08.247Z,55
2023-03-11T18:13:10.808Z,56
2023-03-11T18:23:12.802Z,57
2023-03-11T18:33:14.722Z,58
2023-03-11T18:43:16.939Z,59
2023-03-11T18:53:18.985Z,59
2023-03-11T19:03:21.373Z,60
2023-03-11T19:13:23.521Z,61
2023-03-11T19:23:25.564Z,62
2023-03-11T19:33:28.040Z,63
2023-03-11T19:53:32.249Z,65
2023-03-11T20:03:34.813Z,65
2023-03-11T20:13:36.867Z,66
2023-03-11T20:33:41.879Z,67
2023-03-11T21:03:48.392Z,69
2023-03-11T21:43:56.491Z,71
2023-03-11T21:53:58.248Z,72
2023-03-11T22:04:00.525Z,72
2023-03-11T22:44:09.081Z,74
2023-03-11T22:54:11.613Z,74
2023-03-11T23:24:18.049Z,75
2023-03-11T23:34:19.794Z,75
